sensor_id;sensor_type;location;lat;lon;timestamp;P1;durP1;ratioP1;P2;durP2;ratioP2
79308;SDS011;68767;53.078;7.386;2023-07-13T00:02:04;6.68;;;3.80;;
79308;SDS011;68767;53.078;7.386;2023-07-13T00:04:31;6.40;;;3.78;;
79308;SDS011;68767;53.078;7.386;2023-07-13T00:06:59;7.45;;;3.10;;
79308;SDS011;68767;53.078;7.386;2023-07-13T00:09:26;10.23;;;3.58;;
79308;SDS011;68767;53.078;7.386;2023-07-13T00:11:54;6.28;;;3.53;;
79308;SDS011;68767;53.078;7.386;2023-07-13T00:14:23;8.88;;;4.15;;
79308;SDS011;68767;53.078;7.386;2023-07-13T00:16:52;13.52;;;4.28;;
79308;SDS011;68767;53.078;7.386;2023-07-13T00:19:22;17.10;;;4.10;;
79308;SDS011;68767;53.078;7.386;2023-07-13T00:21:49;15.50;;;3.70;;
79308;SDS011;68767;53.078;7.386;2023-07-13T00:24:17;4.95;;;2.97;;
79308;SDS011;68767;53.078;7.386;2023-07-13T00:26:50;11.20;;;3.75;;
79308;SDS011;68767;53.078;7.386;2023-07-13T00:29:17;9.23;;;3.78;;
79308;SDS011;68767;53.078;7.386;2023-07-13T00:31:45;9.30;;;3.30;;
79308;SDS011;68767;53.078;7.386;2023-07-13T00:34:12;12.05;;;3.13;;
79308;SDS011;68767;53.078;7.386;2023-07-13T00:36:39;9.57;;;2.50;;
79308;SDS011;68767;53.078;7.386;2023-07-13T00:39:07;6.20;;;2.63;;
79308;SDS011;68767;53.078;7.386;2023-07-13T00:41:34;8.68;;;2.40;;
79308;SDS011;68767;53.078;7.386;2023-07-13T00:44:03;9.07;;;3.00;;
79308;SDS011;68767;53.078;7.386;2023-07-13T00:46:32;8.95;;;2.78;;
79308;SDS011;68767;53.078;7.386;2023-07-13T00:49:03;6.60;;;2.38;;
79308;SDS011;68767;53.078;7.386;2023-07-13T00:51:34;7.22;;;2.92;;
79308;SDS011;68767;53.078;7.386;2023-07-13T00:54:22;7.72;;;3.25;;
79308;SDS011;68767;53.078;7.386;2023-07-13T00:56:53;9.02;;;3.05;;
79308;SDS011;68767;53.078;7.386;2023-07-13T00:59:24;8.23;;;3.15;;
79308;SDS011;68767;53.078;7.386;2023-07-13T01:01:51;11.00;;;3.55;;
79308;SDS011;68767;53.078;7.386;2023-07-13T01:04:20;12.25;;;3.33;;
79308;SDS011;68767;53.078;7.386;2023-07-13T01:06:47;8.15;;;2.83;;
79308;SDS011;68767;53.078;7.386;2023-07-13T01:09:14;8.07;;;3.10;;
79308;SDS011;68767;53.078;7.386;2023-07-13T01:11:42;9.68;;;3.00;;
79308;SDS011;68767;53.078;7.386;2023-07-13T01:14:11;7.60;;;3.80;;
79308;SDS011;68767;53.078;7.386;2023-07-13T01:16:39;9.15;;;2.65;;
79308;SDS011;68767;53.078;7.386;2023-07-13T01:19:17;8.57;;;3.53;;
79308;SDS011;68767;53.078;7.386;2023-07-13T01:21:49;9.30;;;3.08;;
79308;SDS011;68767;53.078;7.386;2023-07-13T01:24:17;14.95;;;2.92;;
79308;SDS011;68767;53.078;7.386;2023-07-13T01:26:44;12.40;;;3.58;;
79308;SDS011;68767;53.078;7.386;2023-07-13T01:29:11;8.02;;;3.53;;
79308;SDS011;68767;53.078;7.386;2023-07-13T01:31:38;8.25;;;2.88;;
79308;SDS011;68767;53.078;7.386;2023-07-13T01:34:08;8.23;;;2.90;;
79308;SDS011;68767;53.078;7.386;2023-07-13T01:36:36;10.27;;;3.65;;
79308;SDS011;68767;53.078;7.386;2023-07-13T01:39:04;8.02;;;3.38;;
79308;SDS011;68767;53.078;7.386;2023-07-13T01:41:33;14.10;;;3.28;;
79308;SDS011;68767;53.078;7.386;2023-07-13T01:44:00;6.75;;;3.10;;
79308;SDS011;68767;53.078;7.386;2023-07-13T01:46:27;8.40;;;3.60;;
79308;SDS011;68767;53.078;7.386;2023-07-13T01:48:55;12.90;;;3.25;;
79308;SDS011;68767;53.078;7.386;2023-07-13T01:51:22;30.92;;;13.20;;
79308;SDS011;68767;53.078;7.386;2023-07-13T01:53:52;7.22;;;2.83;;
79308;SDS011;68767;53.078;7.386;2023-07-13T01:56:22;12.00;;;3.05;;
79308;SDS011;68767;53.078;7.386;2023-07-13T01:58:50;8.20;;;2.92;;
79308;SDS011;68767;53.078;7.386;2023-07-13T02:01:18;12.63;;;2.88;;
79308;SDS011;68767;53.078;7.386;2023-07-13T02:03:46;11.77;;;3.10;;
79308;SDS011;68767;53.078;7.386;2023-07-13T02:06:13;8.63;;;2.70;;
79308;SDS011;68767;53.078;7.386;2023-07-13T02:08:40;8.63;;;2.97;;
79308;SDS011;68767;53.078;7.386;2023-07-13T02:11:08;7.97;;;2.97;;
79308;SDS011;68767;53.078;7.386;2023-07-13T02:13:35;11.63;;;3.53;;
79308;SDS011;68767;53.078;7.386;2023-07-13T02:16:02;10.70;;;3.53;;
79308;SDS011;68767;53.078;7.386;2023-07-13T02:18:30;23.17;;;9.93;;
79308;SDS011;68767;53.078;7.386;2023-07-13T02:20:57;15.00;;;5.68;;
79308;SDS011;68767;53.078;7.386;2023-07-13T02:23:24;13.75;;;4.18;;
79308;SDS011;68767;53.078;7.386;2023-07-13T02:25:55;11.15;;;3.17;;
79308;SDS011;68767;53.078;7.386;2023-07-13T02:28:27;15.30;;;3.17;;
79308;SDS011;68767;53.078;7.386;2023-07-13T02:30:54;10.82;;;4.18;;
79308;SDS011;68767;53.078;7.386;2023-07-13T02:33:21;13.75;;;3.10;;
79308;SDS011;68767;53.078;7.386;2023-07-13T02:35:48;17.13;;;3.25;;
79308;SDS011;68767;53.078;7.386;2023-07-13T02:38:15;9.32;;;3.50;;
79308;SDS011;68767;53.078;7.386;2023-07-13T02:40:42;11.05;;;2.85;;
79308;SDS011;68767;53.078;7.386;2023-07-13T02:43:09;16.88;;;6.30;;
79308;SDS011;68767;53.078;7.386;2023-07-13T02:45:36;14.73;;;3.33;;
79308;SDS011;68767;53.078;7.386;2023-07-13T02:48:03;11.98;;;3.22;;
79308;SDS011;68767;53.078;7.386;2023-07-13T02:50:30;12.00;;;3.50;;
79308;SDS011;68767;53.078;7.386;2023-07-13T02:52:57;10.07;;;2.72;;
79308;SDS011;68767;53.078;7.386;2023-07-13T02:55:24;12.05;;;3.20;;
79308;SDS011;68767;53.078;7.386;2023-07-13T02:57:51;13.32;;;3.72;;
79308;SDS011;68767;53.078;7.386;2023-07-13T03:00:18;18.88;;;4.68;;
79308;SDS011;68767;53.078;7.386;2023-07-13T03:02:45;21.65;;;3.33;;
79308;SDS011;68767;53.078;7.386;2023-07-13T03:05:12;13.13;;;4.47;;
79308;SDS011;68767;53.078;7.386;2023-07-13T03:07:41;15.98;;;6.38;;
79308;SDS011;68767;53.078;7.386;2023-07-13T03:10:09;13.77;;;3.80;;
79308;SDS011;68767;53.078;7.386;2023-07-13T03:12:42;13.40;;;3.40;;
79308;SDS011;68767;53.078;7.386;2023-07-13T03:15:17;14.73;;;3.60;;
79308;SDS011;68767;53.078;7.386;2023-07-13T03:17:47;9.13;;;2.78;;
79308;SDS011;68767;53.078;7.386;2023-07-13T03:20:14;14.35;;;3.33;;
79308;SDS011;68767;53.078;7.386;2023-07-13T03:22:42;9.32;;;2.65;;
79308;SDS011;68767;53.078;7.386;2023-07-13T03:25:10;7.32;;;3.40;;
79308;SDS011;68767;53.078;7.386;2023-07-13T03:27:37;16.80;;;3.33;;
79308;SDS011;68767;53.078;7.386;2023-07-13T03:30:07;9.30;;;3.05;;
79308;SDS011;68767;53.078;7.386;2023-07-13T03:32:35;15.60;;;3.40;;
79308;SDS011;68767;53.078;7.386;2023-07-13T03:35:02;13.32;;;4.03;;
79308;SDS011;68767;53.078;7.386;2023-07-13T03:37:31;10.18;;;3.70;;
79308;SDS011;68767;53.078;7.386;2023-07-13T03:39:58;13.20;;;3.72;;
79308;SDS011;68767;53.078;7.386;2023-07-13T03:42:25;16.13;;;4.22;;
79308;SDS011;68767;53.078;7.386;2023-07-13T03:44:53;10.40;;;3.30;;
79308;SDS011;68767;53.078;7.386;2023-07-13T03:47:22;16.02;;;3.60;;
79308;SDS011;68767;53.078;7.386;2023-07-13T03:49:48;17.15;;;4.35;;
79308;SDS011;68767;53.078;7.386;2023-07-13T03:52:15;14.77;;;3.70;;
79308;SDS011;68767;53.078;7.386;2023-07-13T03:54:42;16.27;;;3.72;;
79308;SDS011;68767;53.078;7.386;2023-07-13T03:57:10;15.00;;;3.97;;
79308;SDS011;68767;53.078;7.386;2023-07-13T03:59:37;12.50;;;3.20;;
79308;SDS011;68767;53.078;7.386;2023-07-13T04:02:06;19.40;;;4.28;;
79308;SDS011;68767;53.078;7.386;2023-07-13T04:04:33;17.70;;;3.90;;
79308;SDS011;68767;53.078;7.386;2023-07-13T04:07:00;18.60;;;4.05;;
79308;SDS011;68767;53.078;7.386;2023-07-13T04:09:27;15.73;;;4.05;;
79308;SDS011;68767;53.078;7.386;2023-07-13T04:11:54;18.35;;;4.15;;
79308;SDS011;68767;53.078;7.386;2023-07-13T04:14:21;12.43;;;3.38;;
79308;SDS011;68767;53.078;7.386;2023-07-13T04:16:48;10.90;;;3.25;;
79308;SDS011;68767;53.078;7.386;2023-07-13T04:19:15;17.55;;;3.88;;
79308;SDS011;68767;53.078;7.386;2023-07-13T04:21:42;20.13;;;4.53;;
79308;SDS011;68767;53.078;7.386;2023-07-13T04:24:09;9.20;;;3.30;;
79308;SDS011;68767;53.078;7.386;2023-07-13T04:26:36;15.40;;;3.50;;
79308;SDS011;68767;53.078;7.386;2023-07-13T04:29:05;13.65;;;3.60;;
79308;SDS011;68767;53.078;7.386;2023-07-13T04:31:33;11.80;;;3.75;;
79308;SDS011;68767;53.078;7.386;2023-07-13T04:34:00;12.23;;;3.65;;
79308;SDS011;68767;53.078;7.386;2023-07-13T04:36:27;13.70;;;3.20;;
79308;SDS011;68767;53.078;7.386;2023-07-13T04:38:54;17.98;;;3.45;;
79308;SDS011;68767;53.078;7.386;2023-07-13T04:41:21;13.70;;;3.22;;
79308;SDS011;68767;53.078;7.386;2023-07-13T04:43:49;18.50;;;4.63;;
79308;SDS011;68767;53.078;7.386;2023-07-13T04:46:16;18.60;;;3.63;;
79308;SDS011;68767;53.078;7.386;2023-07-13T04:48:45;17.13;;;4.13;;
79308;SDS011;68767;53.078;7.386;2023-07-13T04:51:13;13.75;;;3.90;;
79308;SDS011;68767;53.078;7.386;2023-07-13T04:53:40;20.23;;;3.38;;
79308;SDS011;68767;53.078;7.386;2023-07-13T04:56:06;13.13;;;3.35;;
79308;SDS011;68767;53.078;7.386;2023-07-13T04:58:34;17.65;;;4.07;;
79308;SDS011;68767;53.078;7.386;2023-07-13T05:01:04;14.88;;;3.67;;
79308;SDS011;68767;53.078;7.386;2023-07-13T05:03:32;12.88;;;3.53;;
79308;SDS011;68767;53.078;7.386;2023-07-13T05:06:01;20.60;;;3.20;;
79308;SDS011;68767;53.078;7.386;2023-07-13T05:08:31;8.77;;;3.40;;
79308;SDS011;68767;53.078;7.386;2023-07-13T05:11:01;12.35;;;3.40;;
79308;SDS011;68767;53.078;7.386;2023-07-13T05:13:30;11.68;;;3.33;;
79308;SDS011;68767;53.078;7.386;2023-07-13T05:15:57;14.60;;;3.13;;
79308;SDS011;68767;53.078;7.386;2023-07-13T05:18:27;20.05;;;4.00;;
79308;SDS011;68767;53.078;7.386;2023-07-13T05:20:58;10.60;;;3.33;;
79308;SDS011;68767;53.078;7.386;2023-07-13T05:23:25;17.95;;;3.97;;
79308;SDS011;68767;53.078;7.386;2023-07-13T05:25:53;16.60;;;3.50;;
79308;SDS011;68767;53.078;7.386;2023-07-13T05:28:21;11.52;;;3.85;;
79308;SDS011;68767;53.078;7.386;2023-07-13T05:30:48;12.10;;;3.85;;
79308;SDS011;68767;53.078;7.386;2023-07-13T05:33:16;15.13;;;3.47;;
79308;SDS011;68767;53.078;7.386;2023-07-13T05:35:43;17.52;;;4.10;;
79308;SDS011;68767;53.078;7.386;2023-07-13T05:38:10;17.60;;;4.25;;
79308;SDS011;68767;53.078;7.386;2023-07-13T05:40:37;17.58;;;3.35;;
79308;SDS011;68767;53.078;7.386;2023-07-13T05:43:05;12.23;;;3.53;;
79308;SDS011;68767;53.078;7.386;2023-07-13T05:45:31;11.90;;;4.05;;
79308;SDS011;68767;53.078;7.386;2023-07-13T05:47:58;8.30;;;3.30;;
79308;SDS011;68767;53.078;7.386;2023-07-13T05:50:26;12.27;;;3.50;;
79308;SDS011;68767;53.078;7.386;2023-07-13T05:52:53;12.88;;;4.10;;
79308;SDS011;68767;53.078;7.386;2023-07-13T05:55:20;18.50;;;3.85;;
79308;SDS011;68767;53.078;7.386;2023-07-13T05:57:47;13.75;;;4.00;;
79308;SDS011;68767;53.078;7.386;2023-07-13T06:00:14;11.85;;;3.72;;
79308;SDS011;68767;53.078;7.386;2023-07-13T06:02:42;13.48;;;4.20;;
79308;SDS011;68767;53.078;7.386;2023-07-13T06:05:09;19.48;;;3.88;;
79308;SDS011;68767;53.078;7.386;2023-07-13T06:07:36;13.63;;;3.90;;
79308;SDS011;68767;53.078;7.386;2023-07-13T06:10:04;9.27;;;3.30;;
79308;SDS011;68767;53.078;7.386;2023-07-13T06:12:31;13.85;;;3.97;;
79308;SDS011;68767;53.078;7.386;2023-07-13T06:14:58;15.82;;;4.53;;
79308;SDS011;68767;53.078;7.386;2023-07-13T06:17:25;13.20;;;3.95;;
79308;SDS011;68767;53.078;7.386;2023-07-13T06:19:52;12.40;;;4.35;;
79308;SDS011;68767;53.078;7.386;2023-07-13T06:22:19;10.65;;;3.50;;
79308;SDS011;68767;53.078;7.386;2023-07-13T06:24:46;20.92;;;4.20;;
79308;SDS011;68767;53.078;7.386;2023-07-13T06:27:13;18.73;;;3.97;;
79308;SDS011;68767;53.078;7.386;2023-07-13T06:29:40;13.57;;;3.72;;
79308;SDS011;68767;53.078;7.386;2023-07-13T06:32:07;14.73;;;4.45;;
79308;SDS011;68767;53.078;7.386;2023-07-13T06:34:34;14.20;;;3.90;;
79308;SDS011;68767;53.078;7.386;2023-07-13T06:37:01;11.10;;;3.60;;
79308;SDS011;68767;53.078;7.386;2023-07-13T06:39:28;14.27;;;3.80;;
79308;SDS011;68767;53.078;7.386;2023-07-13T06:41:55;18.48;;;4.28;;
79308;SDS011;68767;53.078;7.386;2023-07-13T06:44:22;12.13;;;3.70;;
79308;SDS011;68767;53.078;7.386;2023-07-13T06:46:49;12.35;;;3.67;;
79308;SDS011;68767;53.078;7.386;2023-07-13T06:49:16;11.65;;;4.40;;
79308;SDS011;68767;53.078;7.386;2023-07-13T06:51:43;11.00;;;3.85;;
79308;SDS011;68767;53.078;7.386;2023-07-13T06:54:10;12.65;;;3.97;;
79308;SDS011;68767;53.078;7.386;2023-07-13T06:56:37;11.40;;;3.55;;
79308;SDS011;68767;53.078;7.386;2023-07-13T06:59:04;14.02;;;4.03;;
79308;SDS011;68767;53.078;7.386;2023-07-13T07:01:30;12.07;;;3.65;;
79308;SDS011;68767;53.078;7.386;2023-07-13T07:03:58;9.52;;;3.45;;
79308;SDS011;68767;53.078;7.386;2023-07-13T07:06:24;11.20;;;4.20;;
79308;SDS011;68767;53.078;7.386;2023-07-13T07:08:52;15.32;;;3.72;;
79308;SDS011;68767;53.078;7.386;2023-07-13T07:11:20;15.20;;;3.83;;
79308;SDS011;68767;53.078;7.386;2023-07-13T07:13:50;12.75;;;3.65;;
79308;SDS011;68767;53.078;7.386;2023-07-13T07:16:20;9.20;;;3.42;;
79308;SDS011;68767;53.078;7.386;2023-07-13T07:18:47;14.05;;;4.40;;
79308;SDS011;68767;53.078;7.386;2023-07-13T07:21:14;14.52;;;3.30;;
79308;SDS011;68767;53.078;7.386;2023-07-13T07:23:42;9.73;;;3.38;;
79308;SDS011;68767;53.078;7.386;2023-07-13T07:26:09;16.77;;;3.45;;
79308;SDS011;68767;53.078;7.386;2023-07-13T07:28:36;10.10;;;4.20;;
79308;SDS011;68767;53.078;7.386;2023-07-13T07:31:11;12.45;;;3.22;;
79308;SDS011;68767;53.078;7.386;2023-07-13T07:33:41;14.07;;;2.97;;
79308;SDS011;68767;53.078;7.386;2023-07-13T07:36:08;8.63;;;3.13;;
79308;SDS011;68767;53.078;7.386;2023-07-13T07:38:37;7.97;;;3.20;;
79308;SDS011;68767;53.078;7.386;2023-07-13T07:41:04;10.93;;;3.30;;
79308;SDS011;68767;53.078;7.386;2023-07-13T07:43:35;11.18;;;3.72;;
79308;SDS011;68767;53.078;7.386;2023-07-13T07:46:02;12.90;;;3.38;;
79308;SDS011;68767;53.078;7.386;2023-07-13T07:48:30;13.65;;;3.28;;
79308;SDS011;68767;53.078;7.386;2023-07-13T07:50:57;11.05;;;3.20;;
79308;SDS011;68767;53.078;7.386;2023-07-13T07:53:24;8.98;;;2.97;;
79308;SDS011;68767;53.078;7.386;2023-07-13T07:55:51;8.60;;;3.40;;
79308;SDS011;68767;53.078;7.386;2023-07-13T07:58:21;10.02;;;2.97;;
79308;SDS011;68767;53.078;7.386;2023-07-13T08:00:51;15.00;;;3.25;;
79308;SDS011;68767;53.078;7.386;2023-07-13T08:03:21;11.80;;;3.08;;
79308;SDS011;68767;53.078;7.386;2023-07-13T08:05:54;14.15;;;2.95;;
79308;SDS011;68767;53.078;7.386;2023-07-13T08:08:24;8.55;;;3.33;;
79308;SDS011;68767;53.078;7.386;2023-07-13T08:10:51;14.05;;;2.85;;
79308;SDS011;68767;53.078;7.386;2023-07-13T08:13:25;9.32;;;2.72;;
79308;SDS011;68767;53.078;7.386;2023-07-13T08:15:52;10.75;;;2.55;;
79308;SDS011;68767;53.078;7.386;2023-07-13T08:18:19;11.43;;;3.47;;
79308;SDS011;68767;53.078;7.386;2023-07-13T08:20:46;12.85;;;3.03;;
79308;SDS011;68767;53.078;7.386;2023-07-13T08:23:13;9.05;;;2.83;;
79308;SDS011;68767;53.078;7.386;2023-07-13T08:25:39;8.40;;;3.13;;
79308;SDS011;68767;53.078;7.386;2023-07-13T08:28:06;10.73;;;3.05;;
79308;SDS011;68767;53.078;7.386;2023-07-13T08:30:33;5.95;;;2.50;;
79308;SDS011;68767;53.078;7.386;2023-07-13T08:33:04;7.65;;;2.47;;
79308;SDS011;68767;53.078;7.386;2023-07-13T08:35:30;6.97;;;3.10;;
79308;SDS011;68767;53.078;7.386;2023-07-13T08:37:57;9.73;;;2.78;;
79308;SDS011;68767;53.078;7.386;2023-07-13T08:40:25;8.88;;;3.42;;
79308;SDS011;68767;53.078;7.386;2023-07-13T08:42:54;6.43;;;2.83;;
79308;SDS011;68767;53.078;7.386;2023-07-13T08:48:07;6.88;;;3.15;;
79308;SDS011;68767;53.078;7.386;2023-07-13T08:50:42;7.65;;;2.58;;
79308;SDS011;68767;53.078;7.386;2023-07-13T08:53:40;10.25;;;2.70;;
79308;SDS011;68767;53.078;7.386;2023-07-13T08:56:19;9.00;;;2.70;;
79308;SDS011;68767;53.078;7.386;2023-07-13T08:58:49;10.40;;;3.10;;
79308;SDS011;68767;53.078;7.386;2023-07-13T09:04:20;9.98;;;3.97;;
79308;SDS011;68767;53.078;7.386;2023-07-13T09:12:16;14.52;;;5.03;;
79308;SDS011;68767;53.078;7.386;2023-07-13T09:14:58;15.57;;;4.40;;
79308;SDS011;68767;53.078;7.386;2023-07-13T09:17:29;12.80;;;5.15;;
79308;SDS011;68767;53.078;7.386;2023-07-13T09:22:39;14.40;;;5.57;;
79308;SDS011;68767;53.078;7.386;2023-07-13T09:27:39;14.88;;;6.82;;
79308;SDS011;68767;53.078;7.386;2023-07-13T09:32:41;22.95;;;7.53;;
79308;SDS011;68767;53.078;7.386;2023-07-13T09:35:12;20.38;;;6.72;;
79308;SDS011;68767;53.078;7.386;2023-07-13T09:37:44;15.93;;;8.02;;
79308;SDS011;68767;53.078;7.386;2023-07-13T09:40:59;16.08;;;6.50;;
79308;SDS011;68767;53.078;7.386;2023-07-13T09:43:22;9.20;;;5.03;;
79308;SDS011;68767;53.078;7.386;2023-07-13T09:45:49;10.88;;;3.92;;
79308;SDS011;68767;53.078;7.386;2023-07-13T09:48:16;14.93;;;5.65;;
79308;SDS011;68767;53.078;7.386;2023-07-13T09:50:44;18.38;;;5.43;;
79308;SDS011;68767;53.078;7.386;2023-07-13T09:53:16;20.35;;;4.95;;
79308;SDS011;68767;53.078;7.386;2023-07-13T09:55:47;10.50;;;4.30;;
79308;SDS011;68767;53.078;7.386;2023-07-13T09:58:21;9.05;;;3.85;;
79308;SDS011;68767;53.078;7.386;2023-07-13T10:01:00;11.55;;;3.47;;
79308;SDS011;68767;53.078;7.386;2023-07-13T10:03:34;10.55;;;3.30;;
79308;SDS011;68767;53.078;7.386;2023-07-13T10:06:11;8.05;;;3.08;;
79308;SDS011;68767;53.078;7.386;2023-07-13T10:08:40;7.90;;;3.47;;
79308;SDS011;68767;53.078;7.386;2023-07-13T10:11:10;11.05;;;3.03;;
79308;SDS011;68767;53.078;7.386;2023-07-13T10:13:41;5.90;;;3.22;;
79308;SDS011;68767;53.078;7.386;2023-07-13T10:16:17;4.32;;;2.40;;
79308;SDS011;68767;53.078;7.386;2023-07-13T10:18:56;5.80;;;2.88;;
79308;SDS011;68767;53.078;7.386;2023-07-13T10:22:12;7.18;;;2.95;;
79308;SDS011;68767;53.078;7.386;2023-07-13T10:24:23;7.50;;;2.97;;
79308;SDS011;68767;53.078;7.386;2023-07-13T10:29:47;6.82;;;2.88;;
79308;SDS011;68767;53.078;7.386;2023-07-13T10:32:30;9.50;;;3.35;;
79308;SDS011;68767;53.078;7.386;2023-07-13T10:34:57;7.72;;;3.58;;
79308;SDS011;68767;53.078;7.386;2023-07-13T10:37:31;6.07;;;3.38;;
79308;SDS011;68767;53.078;7.386;2023-07-13T10:40:11;7.93;;;3.53;;
79308;SDS011;68767;53.078;7.386;2023-07-13T10:42:42;6.40;;;2.88;;
79308;SDS011;68767;53.078;7.386;2023-07-13T10:45:22;6.72;;;3.20;;
79308;SDS011;68767;53.078;7.386;2023-07-13T10:47:52;7.97;;;3.15;;
79308;SDS011;68767;53.078;7.386;2023-07-13T10:50:23;5.30;;;2.45;;
79308;SDS011;68767;53.078;7.386;2023-07-13T10:52:53;6.78;;;2.90;;
79308;SDS011;68767;53.078;7.386;2023-07-13T10:55:30;10.10;;;2.65;;
79308;SDS011;68767;53.078;7.386;2023-07-13T10:58:02;9.88;;;2.80;;
79308;SDS011;68767;53.078;7.386;2023-07-13T11:03:20;9.52;;;2.70;;
79308;SDS011;68767;53.078;7.386;2023-07-13T11:05:50;7.53;;;3.63;;
79308;SDS011;68767;53.078;7.386;2023-07-13T11:10:59;7.72;;;3.08;;
79308;SDS011;68767;53.078;7.386;2023-07-13T11:16:13;7.50;;;2.20;;
79308;SDS011;68767;53.078;7.386;2023-07-13T11:21:28;5.18;;;2.33;;
79308;SDS011;68767;53.078;7.386;2023-07-13T11:32:01;3.72;;;1.75;;
79308;SDS011;68767;53.078;7.386;2023-07-13T11:34:47;5.50;;;2.03;;
79308;SDS011;68767;53.078;7.386;2023-07-13T11:37:16;6.22;;;2.70;;
79308;SDS011;68767;53.078;7.386;2023-07-13T11:39:45;5.57;;;2.13;;
79308;SDS011;68767;53.078;7.386;2023-07-13T11:42:16;5.35;;;2.38;;
79308;SDS011;68767;53.078;7.386;2023-07-13T11:44:50;7.15;;;2.75;;
79308;SDS011;68767;53.078;7.386;2023-07-13T11:47:39;6.47;;;2.88;;
79308;SDS011;68767;53.078;7.386;2023-07-13T11:50:16;6.15;;;2.63;;
79308;SDS011;68767;53.078;7.386;2023-07-13T11:52:45;4.45;;;2.53;;
79308;SDS011;68767;53.078;7.386;2023-07-13T11:55:18;8.52;;;3.20;;
79308;SDS011;68767;53.078;7.386;2023-07-13T11:57:51;6.85;;;2.50;;
79308;SDS011;68767;53.078;7.386;2023-07-13T12:00:23;4.65;;;2.40;;
79308;SDS011;68767;53.078;7.386;2023-07-13T12:02:55;4.57;;;2.50;;
79308;SDS011;68767;53.078;7.386;2023-07-13T12:05:24;6.80;;;2.53;;
79308;SDS011;68767;53.078;7.386;2023-07-13T12:07:51;7.13;;;2.50;;
79308;SDS011;68767;53.078;7.386;2023-07-13T12:10:27;4.15;;;2.17;;
79308;SDS011;68767;53.078;7.386;2023-07-13T12:15:26;4.13;;;2.65;;
79308;SDS011;68767;53.078;7.386;2023-07-13T12:18:01;6.03;;;2.28;;
79308;SDS011;68767;53.078;7.386;2023-07-13T12:20:33;5.45;;;3.03;;
79308;SDS011;68767;53.078;7.386;2023-07-13T12:23:14;5.47;;;2.45;;
79308;SDS011;68767;53.078;7.386;2023-07-13T12:25:46;5.07;;;2.10;;
79308;SDS011;68767;53.078;7.386;2023-07-13T12:28:20;5.07;;;2.30;;
79308;SDS011;68767;53.078;7.386;2023-07-13T12:31:00;6.15;;;2.47;;
79308;SDS011;68767;53.078;7.386;2023-07-13T12:33:30;4.80;;;2.22;;
79308;SDS011;68767;53.078;7.386;2023-07-13T12:36:02;4.45;;;2.10;;
79308;SDS011;68767;53.078;7.386;2023-07-13T12:38:32;5.07;;;2.47;;
79308;SDS011;68767;53.078;7.386;2023-07-13T12:41:00;5.63;;;2.08;;
79308;SDS011;68767;53.078;7.386;2023-07-13T12:43:28;8.13;;;3.33;;
79308;SDS011;68767;53.078;7.386;2023-07-13T12:46:04;5.22;;;1.88;;
79308;SDS011;68767;53.078;7.386;2023-07-13T12:48:47;7.43;;;2.50;;
79308;SDS011;68767;53.078;7.386;2023-07-13T12:51:29;5.82;;;2.30;;
79308;SDS011;68767;53.078;7.386;2023-07-13T12:54:04;6.53;;;2.03;;
79308;SDS011;68767;53.078;7.386;2023-07-13T12:56:38;4.47;;;1.90;;
79308;SDS011;68767;53.078;7.386;2023-07-13T12:59:05;5.05;;;2.75;;
79308;SDS011;68767;53.078;7.386;2023-07-13T13:01:36;5.35;;;2.85;;
79308;SDS011;68767;53.078;7.386;2023-07-13T13:04:04;4.97;;;2.28;;
79308;SDS011;68767;53.078;7.386;2023-07-13T13:06:35;5.75;;;2.20;;
79308;SDS011;68767;53.078;7.386;2023-07-13T13:09:03;5.65;;;2.55;;
79308;SDS011;68767;53.078;7.386;2023-07-13T13:11:30;8.18;;;2.30;;
79308;SDS011;68767;53.078;7.386;2023-07-13T13:13:58;4.68;;;1.70;;
79308;SDS011;68767;53.078;7.386;2023-07-13T13:18:55;4.55;;;2.30;;
79308;SDS011;68767;53.078;7.386;2023-07-13T13:21:25;6.55;;;3.22;;
79308;SDS011;68767;53.078;7.386;2023-07-13T13:23:52;8.88;;;3.10;;
79308;SDS011;68767;53.078;7.386;2023-07-13T13:26:21;5.40;;;2.58;;
79308;SDS011;68767;53.078;7.386;2023-07-13T13:28:49;6.80;;;2.95;;
79308;SDS011;68767;53.078;7.386;2023-07-13T13:31:16;6.22;;;2.60;;
79308;SDS011;68767;53.078;7.386;2023-07-13T13:33:44;4.25;;;2.35;;
79308;SDS011;68767;53.078;7.386;2023-07-13T13:36:19;5.85;;;2.88;;
79308;SDS011;68767;53.078;7.386;2023-07-13T13:38:50;7.53;;;2.65;;
79308;SDS011;68767;53.078;7.386;2023-07-13T13:41:17;6.82;;;2.70;;
79308;SDS011;68767;53.078;7.386;2023-07-13T13:43:44;8.85;;;3.13;;
79308;SDS011;68767;53.078;7.386;2023-07-13T13:46:13;6.30;;;2.58;;
79308;SDS011;68767;53.078;7.386;2023-07-13T13:48:44;7.25;;;3.00;;
79308;SDS011;68767;53.078;7.386;2023-07-13T13:51:15;7.30;;;2.67;;
79308;SDS011;68767;53.078;7.386;2023-07-13T13:53:45;7.70;;;2.67;;
79308;SDS011;68767;53.078;7.386;2023-07-13T13:56:13;5.60;;;2.60;;
79308;SDS011;68767;53.078;7.386;2023-07-13T13:58:41;12.25;;;3.00;;
79308;SDS011;68767;53.078;7.386;2023-07-13T14:01:21;7.40;;;3.13;;
79308;SDS011;68767;53.078;7.386;2023-07-13T14:03:51;8.82;;;3.05;;
79308;SDS011;68767;53.078;7.386;2023-07-13T14:06:18;9.95;;;3.22;;
79308;SDS011;68767;53.078;7.386;2023-07-13T14:08:45;15.18;;;3.25;;
79308;SDS011;68767;53.078;7.386;2023-07-13T14:11:14;4.18;;;2.42;;
79308;SDS011;68767;53.078;7.386;2023-07-13T14:13:45;7.45;;;2.70;;
79308;SDS011;68767;53.078;7.386;2023-07-13T14:16:17;6.38;;;2.03;;
79308;SDS011;68767;53.078;7.386;2023-07-13T14:18:46;6.10;;;1.90;;
79308;SDS011;68767;53.078;7.386;2023-07-13T14:21:15;4.32;;;1.77;;
79308;SDS011;68767;53.078;7.386;2023-07-13T14:23:44;3.67;;;1.80;;
79308;SDS011;68767;53.078;7.386;2023-07-13T14:26:13;4.93;;;2.10;;
79308;SDS011;68767;53.078;7.386;2023-07-13T14:28:44;5.55;;;2.00;;
79308;SDS011;68767;53.078;7.386;2023-07-13T14:31:14;5.18;;;1.80;;
79308;SDS011;68767;53.078;7.386;2023-07-13T14:33:46;3.97;;;1.67;;
79308;SDS011;68767;53.078;7.386;2023-07-13T14:38:41;6.00;;;1.67;;
79308;SDS011;68767;53.078;7.386;2023-07-13T14:41:08;4.53;;;1.80;;
79308;SDS011;68767;53.078;7.386;2023-07-13T14:43:35;5.82;;;1.77;;
79308;SDS011;68767;53.078;7.386;2023-07-13T14:46:02;3.42;;;1.50;;
79308;SDS011;68767;53.078;7.386;2023-07-13T14:48:30;4.55;;;1.58;;
79308;SDS011;68767;53.078;7.386;2023-07-13T14:50:57;5.20;;;1.65;;
79308;SDS011;68767;53.078;7.386;2023-07-13T14:53:26;6.40;;;2.00;;
79308;SDS011;68767;53.078;7.386;2023-07-13T14:55:54;5.47;;;1.80;;
79308;SDS011;68767;53.078;7.386;2023-07-13T14:58:23;4.75;;;1.42;;
79308;SDS011;68767;53.078;7.386;2023-07-13T15:00:50;7.45;;;1.73;;
79308;SDS011;68767;53.078;7.386;2023-07-13T15:03:21;5.85;;;1.50;;
79308;SDS011;68767;53.078;7.386;2023-07-13T15:05:51;3.88;;;1.55;;
79308;SDS011;68767;53.078;7.386;2023-07-13T15:08:19;6.03;;;1.98;;
79308;SDS011;68767;53.078;7.386;2023-07-13T15:10:46;6.88;;;1.73;;
79308;SDS011;68767;53.078;7.386;2023-07-13T15:13:18;5.50;;;1.40;;
79308;SDS011;68767;53.078;7.386;2023-07-13T15:15:47;6.15;;;1.85;;
79308;SDS011;68767;53.078;7.386;2023-07-13T15:18:17;6.40;;;1.55;;
79308;SDS011;68767;53.078;7.386;2023-07-13T15:20:46;5.57;;;1.80;;
79308;SDS011;68767;53.078;7.386;2023-07-13T15:23:15;7.18;;;1.70;;
79308;SDS011;68767;53.078;7.386;2023-07-13T15:25:44;4.60;;;1.80;;
79308;SDS011;68767;53.078;7.386;2023-07-13T15:28:12;8.85;;;2.00;;
79308;SDS011;68767;53.078;7.386;2023-07-13T15:30:44;5.10;;;1.80;;
79308;SDS011;68767;53.078;7.386;2023-07-13T15:33:29;5.55;;;1.88;;
79308;SDS011;68767;53.078;7.386;2023-07-13T15:35:56;7.28;;;1.95;;
79308;SDS011;68767;53.078;7.386;2023-07-13T15:38:29;4.82;;;1.77;;
79308;SDS011;68767;53.078;7.386;2023-07-13T15:40:58;7.22;;;2.00;;
79308;SDS011;68767;53.078;7.386;2023-07-13T15:43:25;6.60;;;1.60;;